createdAt,value
2022-12-25T00:01:33.574Z,198.97
2022-12-25T00:04:00.833Z,206.93
2022-12-25T00:06:28.445Z,202.30
2022-12-25T00:08:55.516Z,202.43
2022-12-25T00:11:22.733Z,196.77
2022-12-25T00:13:49.843Z,203.17
2022-12-25T00:16:22.434Z,198.93
2022-12-25T00:18:51.528Z,202.30
2022-12-25T00:21:20.968Z,200.13
2022-12-25T00:23:53.004Z,201.97
2022-12-25T00:26:20.227Z,198.97
2022-12-25T00:28:47.320Z,197.93
2022-12-25T00:31:17.152Z,199.03
2022-12-25T00:33:46.043Z,201.03
2022-12-25T00:36:16.245Z,195.20
2022-12-25T00:38:44.032Z,199.27
2022-12-25T00:41:38.952Z,200.50
2022-12-25T00:44:07.720Z,200.20
2022-12-25T00:46:35.616Z,198.13
2022-12-25T00:49:03.285Z,201.50
2022-12-25T00:51:30.427Z,199.70
2022-12-25T00:53:57.526Z,207.57
2022-12-25T00:56:24.672Z,201.43
2022-12-25T00:58:51.920Z,205.50
2022-12-25T01:01:19.073Z,204.13
2022-12-25T01:03:46.589Z,205.80
2022-12-25T01:06:14.154Z,202.93
2022-12-25T01:09:01.576Z,205.60
2022-12-25T01:11:29.135Z,206.90
2022-12-25T01:13:56.350Z,202.83
2022-12-25T01:16:23.507Z,198.20
2022-12-25T01:18:50.731Z,207.97
2022-12-25T01:21:22.389Z,199.17
2022-12-25T01:23:52.509Z,204.40
2022-12-25T01:26:22.535Z,206.90
2022-12-25T01:28:50.358Z,199.83
2022-12-25T01:31:20.273Z,199.73
2022-12-25T01:33:48.033Z,204.37
2022-12-25T01:36:21.668Z,198.20
2022-12-25T01:38:49.466Z,197.40
2022-12-25T01:41:21.710Z,207.80
2022-12-25T01:44:05.486Z,205.10
2022-12-25T01:46:33.422Z,198.43
2022-12-25T01:49:19.956Z,196.23
2022-12-25T01:51:53.992Z,197.70
2022-12-25T01:54:30.954Z,198.13
2022-12-25T01:57:03.341Z,199.17
2022-12-25T01:59:30.915Z,198.40
2022-12-25T02:01:59.926Z,202.57
2022-12-25T02:04:38.950Z,195.03
2022-12-25T02:07:19.835Z,201.00
2022-12-25T02:09:47.977Z,193.73
2022-12-25T02:12:27.216Z,201.87
2022-12-25T02:15:04.892Z,196.57
2022-12-25T02:18:08.102Z,203.07
2022-12-25T02:20:47.542Z,198.03
2022-12-25T02:23:29.707Z,192.77
2022-12-25T02:26:16.616Z,200.27
2022-12-25T02:28:52.703Z,199.50
2022-12-25T02:31:41.906Z,194.13
2022-12-25T02:34:18.117Z,193.67
2022-12-25T02:37:16.064Z,190.97
2022-12-25T02:40:12.004Z,194.10
2022-12-25T02:43:10.000Z,195.23
2022-12-25T02:46:28.025Z,197.97
2022-12-25T02:49:22.174Z,200.33
2022-12-25T02:52:16.250Z,201.57
2022-12-25T02:55:13.087Z,192.80
2022-12-25T02:58:03.314Z,197.80
2022-12-25T03:00:54.167Z,195.10
2022-12-25T03:03:44.722Z,200.70
2022-12-25T03:06:31.149Z,197.93
2022-12-25T03:09:20.611Z,197.70
2022-12-25T03:11:56.167Z,202.90
2022-12-25T03:14:42.057Z,202.10
2022-12-25T03:17:09.611Z,201.67
2022-12-25T03:19:55.013Z,203.00
2022-12-25T03:22:47.942Z,198.90
2022-12-25T03:25:35.349Z,208.03
2022-12-25T03:28:03.208Z,208.57
2022-12-25T03:31:14.322Z,202.50
2022-12-25T03:34:22.350Z,201.77
2022-12-25T03:37:31.657Z,200.60
2022-12-25T03:40:50.828Z,204.67
2022-12-25T03:43:55.845Z,211.43
2022-12-25T03:46:47.159Z,211.13
2022-12-25T03:50:19.579Z,205.10
2022-12-25T03:53:06.964Z,206.27
2022-12-25T03:55:54.458Z,210.83
2022-12-25T03:58:43.420Z,203.63
2022-12-25T04:01:28.957Z,211.20
2022-12-25T04:04:14.984Z,206.80
2022-12-25T04:07:00.913Z,204.07
2022-12-25T04:09:46.931Z,208.33
2022-12-25T04:12:32.205Z,201.43
2022-12-25T04:15:17.614Z,201.57
2022-12-25T04:18:02.898Z,210.63
2022-12-25T04:20:48.386Z,200.97
2022-12-25T04:23:33.757Z,212.80
2022-12-25T04:26:19.081Z,203.23
2022-12-25T04:29:04.988Z,198.47
2022-12-25T04:31:50.244Z,199.33
2022-12-25T04:34:35.538Z,203.80
2022-12-25T04:37:02.687Z,206.10
2022-12-25T04:39:29.802Z,208.97
2022-12-25T04:41:56.921Z,203.27
2022-12-25T04:44:24.358Z,198.23
2022-12-25T04:46:51.432Z,203.10
2022-12-25T04:49:18.658Z,210.50
2022-12-25T04:51:45.837Z,204.47
2022-12-25T04:54:12.986Z,206.63
2022-12-25T04:56:45.589Z,209.30
2022-12-25T04:59:13.495Z,210.87
2022-12-25T05:01:41.142Z,209.10
2022-12-25T05:04:08.323Z,221.47
2022-12-25T05:06:35.486Z,224.80
2022-12-25T05:09:02.753Z,221.00
2022-12-25T05:11:29.824Z,214.97
2022-12-25T05:13:58.014Z,216.30
2022-12-25T05:16:26.426Z,212.73
2022-12-25T05:18:53.607Z,208.63
2022-12-25T05:21:20.812Z,211.07
2022-12-25T05:23:54.175Z,204.33
2022-12-25T05:26:25.808Z,209.87
2022-12-25T05:28:54.250Z,214.47
2022-12-25T05:31:21.828Z,214.30
2022-12-25T05:33:52.675Z,217.83
2022-12-25T05:36:20.176Z,212.97
2022-12-25T05:38:47.261Z,218.60
2022-12-25T05:41:14.365Z,211.67
2022-12-25T05:43:41.488Z,209.10
2022-12-25T05:46:10.614Z,213.50
2022-12-25T05:48:38.814Z,218.60
2022-12-25T05:51:09.424Z,220.43
2022-12-25T05:53:37.048Z,218.57
2022-12-25T05:56:07.382Z,222.97
2022-12-25T05:58:36.906Z,224.53
2022-12-25T06:01:04.789Z,216.63
2022-12-25T06:03:32.071Z,223.13
2022-12-25T06:05:59.138Z,209.53
2022-12-25T06:08:26.295Z,214.30
2022-12-25T06:10:53.431Z,217.40
2022-12-25T06:13:20.510Z,207.70
2022-12-25T06:15:47.559Z,206.47
2022-12-25T06:18:15.016Z,216.47
2022-12-25T06:20:42.044Z,207.43
2022-12-25T06:23:09.124Z,209.57
2022-12-25T06:25:40.188Z,208.93
2022-12-25T06:28:07.982Z,217.77
2022-12-25T06:30:35.494Z,219.77
2022-12-25T06:33:03.089Z,214.90
2022-12-25T06:35:30.235Z,212.63
2022-12-25T06:37:57.478Z,224.17
2022-12-25T06:40:24.946Z,216.50
2022-12-25T06:42:52.314Z,217.07
2022-12-25T06:45:19.409Z,216.90
2022-12-25T06:47:46.459Z,220.37
2022-12-25T06:50:13.632Z,226.07
2022-12-25T06:52:40.767Z,223.33
2022-12-25T06:55:08.478Z,227.07
2022-12-25T06:57:35.561Z,225.67
2022-12-25T07:00:03.558Z,228.73
2022-12-25T07:02:32.963Z,241.00
2022-12-25T07:05:00.837Z,245.37
2022-12-25T07:07:28.295Z,252.27
2022-12-25T07:09:55.341Z,278.83
2022-12-25T07:12:24.320Z,256.93
2022-12-25T07:14:55.879Z,248.40
2022-12-25T07:17:24.134Z,245.90
2022-12-25T07:19:51.953Z,231.73
2022-12-25T07:22:19.687Z,227.83
2022-12-25T07:24:47.195Z,229.17
2022-12-25T07:27:14.243Z,231.73
2022-12-25T07:29:41.319Z,234.97
2022-12-25T07:32:08.477Z,231.23
2022-12-25T07:34:36.043Z,225.83
2022-12-25T07:37:03.191Z,224.60
2022-12-25T07:39:30.726Z,224.83
2022-12-25T07:41:58.203Z,218.20
2022-12-25T07:44:27.761Z,224.40
2022-12-25T07:46:55.205Z,215.07
2022-12-25T07:49:22.380Z,220.57
2022-12-25T07:51:49.938Z,218.90
2022-12-25T07:54:17.452Z,218.93
2022-12-25T07:56:44.929Z,221.13
2022-12-25T07:59:12.475Z,227.40
2022-12-25T08:01:40.042Z,220.57
2022-12-25T08:04:08.344Z,218.47
2022-12-25T08:06:36.216Z,219.80
2022-12-25T08:09:12.105Z,214.77
2022-12-25T08:11:40.248Z,215.77
2022-12-25T08:14:09.044Z,212.33
2022-12-25T08:16:39.934Z,219.40
2022-12-25T08:19:10.301Z,216.93
2022-12-25T08:21:38.273Z,211.83
2022-12-25T08:24:05.549Z,224.23
2022-12-25T08:26:33.086Z,221.37
2022-12-25T08:29:00.162Z,231.97
2022-12-25T08:31:29.980Z,233.20
2022-12-25T08:33:58.928Z,225.30
2022-12-25T08:36:26.374Z,225.93
2022-12-25T08:39:00.378Z,235.47
2022-12-25T08:41:30.645Z,232.37
2022-12-25T08:43:58.456Z,238.33
2022-12-25T08:46:25.614Z,234.47
2022-12-25T08:48:52.770Z,228.83
2022-12-25T08:51:22.854Z,233.80
2022-12-25T08:53:52.261Z,223.97
2022-12-25T08:56:20.313Z,221.47
2022-12-25T08:58:47.581Z,217.63
2022-12-25T09:01:14.798Z,217.07
2022-12-25T09:03:43.034Z,215.17
2022-12-25T09:06:14.356Z,214.50
2022-12-25T09:08:48.794Z,224.80
2022-12-25T09:11:18.329Z,222.50
2022-12-25T09:13:45.733Z,222.20
2022-12-25T09:16:17.407Z,221.30
2022-12-25T09:18:44.845Z,225.57
2022-12-25T09:21:15.028Z,223.60
2022-12-25T09:23:43.485Z,250.23
2022-12-25T09:26:17.065Z,225.00
2022-12-25T09:28:50.753Z,235.20
2022-12-25T09:31:19.578Z,238.80
2022-12-25T09:33:46.894Z,263.63
2022-12-25T09:36:14.533Z,233.20
2022-12-25T09:38:42.072Z,354.40
2022-12-25T09:41:34.566Z,337.37
2022-12-25T09:44:10.630Z,253.57
2022-12-25T09:47:02.574Z,239.30
2022-12-25T09:50:12.005Z,234.70
2022-12-25T09:52:57.569Z,319.33
2022-12-25T09:55:27.374Z,419.77
2022-12-25T09:58:01.342Z,307.30
2022-12-25T10:01:13.069Z,339.63
2022-12-25T10:04:05.021Z,287.77
2022-12-25T10:06:56.701Z,233.13
2022-12-25T10:09:38.120Z,223.10
2022-12-25T10:12:49.440Z,220.13
2022-12-25T10:15:46.306Z,241.60
2022-12-25T10:18:46.691Z,244.23
2022-12-25T10:21:18.249Z,241.47
2022-12-25T10:24:20.965Z,230.63
2022-12-25T10:26:51.516Z,231.93
2022-12-25T10:29:20.063Z,215.90
2022-12-25T10:31:50.411Z,211.70
2022-12-25T10:34:18.060Z,215.97
2022-12-25T10:36:46.665Z,206.97
2022-12-25T10:39:23.845Z,206.47
2022-12-25T10:42:05.882Z,203.80
2022-12-25T10:44:34.584Z,203.87
2022-12-25T10:47:04.079Z,210.47
2022-12-25T10:49:38.087Z,212.50
2022-12-25T10:52:25.456Z,204.03
2022-12-25T10:54:52.984Z,202.10
2022-12-25T10:57:23.823Z,211.67
2022-12-25T10:59:56.624Z,204.13
2022-12-25T11:02:34.609Z,208.80
2022-12-25T11:05:07.988Z,202.27
2022-12-25T11:07:46.725Z,200.50
2022-12-25T11:10:32.515Z,205.23
2022-12-25T11:13:01.871Z,211.60
2022-12-25T11:15:42.462Z,216.33
2022-12-25T11:18:48.248Z,200.93
2022-12-25T11:21:33.219Z,202.43
2022-12-25T11:24:21.052Z,210.43
2022-12-25T11:26:55.333Z,207.97
2022-12-25T11:29:34.280Z,207.67
2022-12-25T11:32:04.658Z,207.13
2022-12-25T11:34:42.176Z,208.37
2022-12-25T11:37:18.069Z,211.93
2022-12-25T11:39:45.577Z,205.30
2022-12-25T11:42:26.593Z,219.23
2022-12-25T11:45:25.966Z,219.50
2022-12-25T11:48:18.307Z,214.57
2022-12-25T11:51:06.143Z,216.50
2022-12-25T11:53:54.848Z,236.00
2022-12-25T11:56:29.126Z,227.00
2022-12-25T11:59:06.234Z,221.00
2022-12-25T12:01:46.485Z,215.50
2022-12-25T12:04:43.441Z,217.60
2022-12-25T12:07:30.928Z,212.33
2022-12-25T12:10:04.323Z,213.13
2022-12-25T12:12:55.072Z,217.70
2022-12-25T12:15:39.838Z,221.43
2022-12-25T12:18:27.233Z,211.53
2022-12-25T12:21:23.989Z,216.23
2022-12-25T12:24:07.674Z,217.50
2022-12-25T12:26:40.965Z,219.67
2022-12-25T12:29:23.434Z,227.07
2022-12-25T12:31:51.784Z,228.33
2022-12-25T12:34:43.077Z,222.70
2022-12-25T12:37:36.267Z,216.37
2022-12-25T12:40:05.279Z,205.70
2022-12-25T12:42:40.413Z,207.57
2022-12-25T12:45:20.930Z,215.87
2022-12-25T12:47:50.377Z,213.80
2022-12-25T12:50:40.911Z,225.53
2022-12-25T12:53:23.513Z,221.73
2022-12-25T12:55:52.621Z,211.47
2022-12-25T12:58:37.766Z,217.23
2022-12-25T13:01:13.642Z,216.87
2022-12-25T13:04:05.093Z,222.60
2022-12-25T13:06:47.777Z,231.50
2022-12-25T13:09:42.482Z,222.17
2022-12-25T13:12:15.019Z,221.67
2022-12-25T13:14:47.980Z,228.27
2022-12-25T13:17:21.160Z,225.70
2022-12-25T13:19:55.216Z,223.97
2022-12-25T13:22:35.220Z,225.27
2022-12-25T13:25:08.965Z,226.83
2022-12-25T13:27:36.224Z,236.97
2022-12-25T13:30:20.003Z,226.63
2022-12-25T13:32:47.269Z,232.37
2022-12-25T13:35:16.735Z,234.80
2022-12-25T13:37:44.982Z,236.53
2022-12-25T13:40:28.188Z,238.07
2022-12-25T13:42:59.942Z,231.70
2022-12-25T13:45:30.740Z,233.13
2022-12-25T13:47:58.725Z,237.83
2022-12-25T13:50:32.761Z,236.43
2022-12-25T13:53:13.529Z,232.53
2022-12-25T13:55:49.007Z,232.13
2022-12-25T13:58:29.467Z,235.70
2022-12-25T14:01:01.910Z,226.90
2022-12-25T14:03:42.781Z,225.27
2022-12-25T14:06:28.155Z,225.03
2022-12-25T14:08:58.337Z,222.40
2022-12-25T14:11:28.764Z,236.50
2022-12-25T14:14:04.291Z,238.33
2022-12-25T14:16:31.852Z,226.23
2022-12-25T14:19:02.195Z,230.10
2022-12-25T14:21:49.255Z,221.33
2022-12-25T14:24:17.500Z,239.50
2022-12-25T14:26:44.895Z,240.77
2022-12-25T14:29:17.868Z,238.63
2022-12-25T14:31:47.345Z,236.07
2022-12-25T14:34:23.389Z,231.70
2022-12-25T14:36:52.529Z,239.47
2022-12-25T14:39:54.952Z,241.47
2022-12-25T14:42:40.200Z,236.33
2022-12-25T14:45:27.200Z,234.30
2022-12-25T14:47:58.084Z,238.23
2022-12-25T14:50:55.665Z,230.47
2022-12-25T14:53:32.492Z,238.13
2022-12-25T14:56:00.114Z,239.67
2022-12-25T14:58:31.242Z,241.50
2022-12-25T15:01:04.301Z,241.43
2022-12-25T15:03:36.101Z,247.53
2022-12-25T15:06:21.179Z,237.67
2022-12-25T15:09:04.663Z,239.30
2022-12-25T15:11:32.119Z,241.20
2022-12-25T15:13:59.592Z,256.00
2022-12-25T15:16:43.436Z,233.63
2022-12-25T15:19:20.489Z,247.30
2022-12-25T15:21:50.878Z,249.87
2022-12-25T15:24:18.780Z,249.33
2022-12-25T15:26:45.901Z,251.57
2022-12-25T15:29:13.081Z,251.47
2022-12-25T15:31:41.231Z,251.40
2022-12-25T15:34:20.449Z,254.67
2022-12-25T15:36:48.613Z,264.07
2022-12-25T15:39:15.758Z,255.03
2022-12-25T15:42:01.266Z,259.47
2022-12-25T15:44:28.473Z,250.50
2022-12-25T15:46:55.706Z,252.43
2022-12-25T15:49:22.748Z,255.77
2022-12-25T15:51:50.009Z,256.90
2022-12-25T15:54:17.472Z,251.77
2022-12-25T15:56:52.958Z,265.37
2022-12-25T15:59:21.077Z,257.43
2022-12-25T16:01:55.229Z,255.07
2022-12-25T16:04:23.949Z,256.37
2022-12-25T16:06:52.056Z,254.97
2022-12-25T16:09:21.409Z,262.20
2022-12-25T16:11:50.230Z,253.10
2022-12-25T16:14:18.889Z,254.33
2022-12-25T16:16:46.588Z,258.07
2022-12-25T16:19:13.843Z,259.83
2022-12-25T16:21:45.194Z,261.43
2022-12-25T16:24:13.716Z,248.93
2022-12-25T16:26:41.754Z,254.83
2022-12-25T16:29:09.657Z,249.80
2022-12-25T16:31:37.928Z,255.87
2022-12-25T16:34:07.326Z,255.10
2022-12-25T16:36:35.504Z,253.03
2022-12-25T16:39:04.247Z,254.40
2022-12-25T16:41:32.316Z,259.10
2022-12-25T16:43:59.396Z,249.93
2022-12-25T16:46:26.879Z,247.83
2022-12-25T16:48:55.619Z,257.73
2022-12-25T16:51:23.595Z,246.63
2022-12-25T16:53:50.696Z,261.03
2022-12-25T16:56:25.547Z,246.07
2022-12-25T16:58:52.773Z,249.83
2022-12-25T17:01:22.773Z,252.63
2022-12-25T17:03:51.036Z,245.83
2022-12-25T17:06:24.816Z,244.80
2022-12-25T17:08:55.390Z,244.83
2022-12-25T17:11:24.409Z,252.80
2022-12-25T17:13:51.695Z,252.80
2022-12-25T17:16:28.074Z,251.63
2022-12-25T17:19:01.495Z,247.43
2022-12-25T17:21:29.780Z,261.20
2022-12-25T17:24:02.357Z,260.67
2022-12-25T17:26:32.638Z,251.07
2022-12-25T17:29:00.273Z,253.03
2022-12-25T17:31:28.214Z,271.43
2022-12-25T17:33:55.609Z,261.77
2022-12-25T17:36:23.715Z,267.37
2022-12-25T17:38:50.935Z,262.13
2022-12-25T17:41:19.976Z,253.37
2022-12-25T17:43:48.566Z,251.53
2022-12-25T17:46:25.866Z,296.03
2022-12-25T17:48:55.799Z,255.23
2022-12-25T17:51:25.482Z,246.87
2022-12-25T17:53:55.869Z,255.93
2022-12-25T17:56:24.691Z,250.10
2022-12-25T17:58:58.347Z,253.70
2022-12-25T18:01:27.772Z,242.30
2022-12-25T18:03:55.695Z,256.60
2022-12-25T18:06:25.360Z,242.30
2022-12-25T18:08:54.614Z,241.73
2022-12-25T18:11:33.174Z,236.33
2022-12-25T18:14:05.447Z,242.83
2022-12-25T18:16:37.359Z,227.07
2022-12-25T18:19:05.460Z,254.10
2022-12-25T18:21:32.739Z,240.47
2022-12-25T18:24:02.533Z,226.83
2022-12-25T18:26:29.811Z,224.50
2022-12-25T18:28:57.688Z,228.30
2022-12-25T18:31:30.250Z,217.50
2022-12-25T18:33:58.959Z,232.87
2022-12-25T18:36:29.319Z,230.40
2022-12-25T18:38:57.569Z,218.57
2022-12-25T18:41:25.301Z,213.83
2022-12-25T18:43:55.489Z,219.77
2022-12-25T18:46:28.025Z,220.03
2022-12-25T18:48:56.990Z,218.27
2022-12-25T18:51:26.718Z,224.37
2022-12-25T18:53:58.300Z,223.20
2022-12-25T18:56:25.415Z,222.23
2022-12-25T18:58:52.519Z,217.83
2022-12-25T19:01:23.944Z,215.00
2022-12-25T19:03:57.182Z,211.53
2022-12-25T19:06:32.795Z,213.03
2022-12-25T19:08:59.971Z,217.40
2022-12-25T19:11:27.126Z,222.60
2022-12-25T19:13:54.195Z,218.17
2022-12-25T19:16:21.359Z,216.17
2022-12-25T19:18:48.487Z,222.43
2022-12-25T19:21:16.180Z,215.77
2022-12-25T19:23:43.383Z,215.60
2022-12-25T19:26:11.303Z,209.67
2022-12-25T19:28:39.604Z,224.03
2022-12-25T19:31:09.056Z,214.33
2022-12-25T19:33:41.770Z,223.30
2022-12-25T19:36:14.384Z,218.30
2022-12-25T19:38:42.430Z,216.30
2022-12-25T19:41:19.453Z,225.00
2022-12-25T19:43:48.845Z,219.73
2022-12-25T19:46:30.345Z,222.53
2022-12-25T19:48:57.732Z,207.37
2022-12-25T19:51:28.707Z,208.07
2022-12-25T19:53:56.513Z,209.23
2022-12-25T19:56:25.174Z,220.83
2022-12-25T19:58:52.536Z,207.57
2022-12-25T20:01:22.469Z,207.27
2022-12-25T20:03:50.388Z,217.00
2022-12-25T20:06:26.046Z,207.83
2022-12-25T20:08:56.885Z,213.10
2022-12-25T20:11:27.233Z,210.03
2022-12-25T20:13:55.244Z,212.60
2022-12-25T20:16:23.387Z,216.87
2022-12-25T20:18:51.698Z,221.30
2022-12-25T20:21:21.328Z,219.03
2022-12-25T20:23:51.246Z,214.93
2022-12-25T20:26:21.412Z,212.73
2022-12-25T20:28:48.981Z,221.93
2022-12-25T20:31:21.830Z,222.20
2022-12-25T20:33:50.124Z,246.27
2022-12-25T20:36:18.930Z,230.50
2022-12-25T20:38:46.079Z,230.97
2022-12-25T20:41:29.060Z,243.30
2022-12-25T20:43:57.695Z,222.40
2022-12-25T20:46:26.052Z,217.83
2022-12-25T20:48:54.048Z,222.80
2022-12-25T20:51:24.825Z,211.47
2022-12-25T20:53:52.670Z,210.33
2022-12-25T20:56:23.489Z,217.27
2022-12-25T20:58:56.528Z,225.83
2022-12-25T21:01:24.288Z,221.57
2022-12-25T21:03:51.898Z,217.37
2022-12-25T21:06:19.124Z,213.23
2022-12-25T21:08:47.712Z,208.63
2022-12-25T21:11:15.980Z,206.20
2022-12-25T21:13:46.114Z,215.53
2022-12-25T21:16:18.703Z,210.07
2022-12-25T21:18:47.116Z,208.97
2022-12-25T21:21:15.091Z,210.10
2022-12-25T21:23:42.654Z,211.53
2022-12-25T21:26:22.690Z,213.70
2022-12-25T21:28:52.760Z,213.40
2022-12-25T21:31:21.379Z,219.70
2022-12-25T21:33:54.562Z,212.77
2022-12-25T21:36:28.950Z,215.53
2022-12-25T21:39:04.473Z,212.33
2022-12-25T21:41:33.739Z,207.87
2022-12-25T21:44:01.463Z,206.97
2022-12-25T21:46:29.402Z,205.97
2022-12-25T21:48:57.582Z,211.77
2022-12-25T21:51:47.054Z,213.43
2022-12-25T21:54:16.534Z,212.13
2022-12-25T21:56:47.207Z,213.33
2022-12-25T21:59:21.924Z,215.93
2022-12-25T22:01:50.643Z,212.77
2022-12-25T22:04:20.323Z,211.10
2022-12-25T22:07:06.889Z,210.23
2022-12-25T22:09:34.404Z,213.63
2022-12-25T22:12:20.986Z,212.60
2022-12-25T22:14:54.747Z,208.97
2022-12-25T22:17:48.262Z,209.60
2022-12-25T22:20:38.805Z,212.00
2022-12-25T22:23:06.057Z,210.63
2022-12-25T22:25:33.284Z,210.87
2022-12-25T22:28:00.422Z,207.87
2022-12-25T22:30:29.233Z,212.27
2022-12-25T22:32:56.795Z,208.47
2022-12-25T22:35:24.656Z,207.70
2022-12-25T22:37:53.447Z,205.93
2022-12-25T22:40:21.014Z,205.07
2022-12-25T22:42:48.450Z,208.67
2022-12-25T22:45:16.067Z,205.00
2022-12-25T22:47:43.281Z,216.17
2022-12-25T22:50:12.290Z,201.90
2022-12-25T22:52:40.597Z,207.43
2022-12-25T22:55:09.809Z,206.27
2022-12-25T22:57:37.512Z,206.73
2022-12-25T23:00:08.977Z,207.10
2022-12-25T23:02:36.504Z,202.03
2022-12-25T23:05:04.428Z,205.77
2022-12-25T23:07:31.929Z,208.23
2022-12-25T23:09:59.183Z,201.27
2022-12-25T23:12:44.797Z,205.17
2022-12-25T23:15:11.888Z,201.70
2022-12-25T23:17:57.937Z,207.97
2022-12-25T23:20:57.450Z,202.33
2022-12-25T23:23:43.883Z,206.10
2022-12-25T23:26:11.640Z,200.47
2022-12-25T23:29:01.114Z,203.97
2022-12-25T23:31:36.297Z,198.43
2022-12-25T23:34:04.857Z,203.03
2022-12-25T23:36:32.419Z,197.97
2022-12-25T23:39:06.717Z,199.40
2022-12-25T23:41:36.100Z,199.47
2022-12-25T23:44:03.371Z,205.97
2022-12-25T23:46:30.920Z,204.30
2022-12-25T23:48:58.104Z,199.47
2022-12-25T23:51:25.631Z,201.90
2022-12-25T23:53:53.163Z,200.17
2022-12-25T23:56:20.223Z,197.20
2022-12-25T23:58:51.861Z,202.13
